Time;durP1;ratioP1;P1;durP2;ratioP2;P2;SDS_P1;SDS_P2;PMS_P1;PMS_P2;Temp;Humidity;BMP_temperature;BMP_pressure;BME280_temperature;BME280_humidity;BME280_pressure;Samples;Min_cycle;Max_cycle;Signal;HPM_P1;HPM_P2
2022/06/28 00:00:23;;;;;;;0.10;0.10;;;15.30;99.90;;;;;;4928100;29;20458;-91
2022/06/28 00:02:49;;;;;;;0.10;0.10;;;15.30;99.90;;;;;;4929368;29;20838;-92
2022/06/28 00:05:15;;;;;;;0.10;0.10;;;15.20;99.90;;;;;;4927905;29;20203;-91
2022/06/28 00:07:41;;;;;;;0.10;0.10;;;15.10;99.90;;;;;;4927442;29;20255;-91
2022/06/28 00:10:08;;;;;;;0.10;0.10;;;15.20;99.90;;;;;;4929708;29;20196;-90
2022/06/28 00:12:34;;;;;;;0.10;0.10;;;15.20;99.90;;;;;;4924033;29;20467;-87
2022/06/28 00:17:44;;;;;;;0.10;0.10;;;15.20;99.90;;;;;;4928102;29;20473;-89
2022/06/28 00:20:10;;;;;;;0.10;0.10;;;15.20;99.90;;;;;;4927352;29;20484;-89
2022/06/28 00:22:36;;;;;;;0.10;0.10;;;15.20;99.90;;;;;;4926205;29;20194;-90
2022/06/28 00:25:01;;;;;;;0.10;0.10;;;15.20;99.90;;;;;;4931573;29;20546;-90
2022/06/28 00:27:27;;;;;;;0.10;0.10;;;15.30;99.90;;;;;;4913912;29;20215;-91
2022/06/28 00:29:52;;;;;;;0.10;0.10;;;15.20;99.90;;;;;;4927946;29;20196;-91
2022/06/28 00:32:18;;;;;;;0.10;0.10;;;15.20;99.90;;;;;;4928889;29;20202;-87
2022/06/28 00:34:44;;;;;;;0.10;0.10;;;15.20;99.90;;;;;;4931203;29;20229;-90
2022/06/28 00:37:09;;;;;;;0.10;0.10;;;15.20;99.90;;;;;;4917689;29;20707;-90
2022/06/28 00:39:35;;;;;;;0.10;0.10;;;15.30;99.90;;;;;;4933517;29;20455;-90
2022/06/28 00:42:01;;;;;;;0.10;0.10;;;15.30;99.90;;;;;;4926736;29;20191;-90
2022/06/28 00:44:27;;;;;;;0.10;0.10;;;15.30;99.90;;;;;;4935652;29;20234;-90
2022/06/28 00:46:53;;;;;;;0.10;0.10;;;15.30;99.90;;;;;;4931774;29;20215;-89
2022/06/28 00:49:19;;;;;;;0.10;0.10;;;15.20;99.90;;;;;;4932423;29;20225;-91
2022/06/28 00:51:45;;;;;;;0.10;0.10;;;15.20;99.90;;;;;;4930720;29;20550;-90
2022/06/28 00:54:10;;;;;;;0.10;0.10;;;15.20;99.90;;;;;;4931089;29;20912;-90
2022/06/28 00:56:36;;;;;;;0.10;0.10;;;15.30;99.90;;;;;;4932214;28;20204;-90
2022/06/28 00:59:02;;;;;;;0.10;0.10;;;15.20;99.90;;;;;;4936276;29;20203;-90
2022/06/28 01:01:27;;;;;;;0.10;0.10;;;15.30;99.90;;;;;;4913565;29;20286;-90
2022/06/28 01:03:54;;;;;;;0.10;0.10;;;15.30;99.90;;;;;;4932202;29;20279;-91
2022/06/28 01:06:20;;;;;;;0.10;0.10;;;15.20;99.90;;;;;;4914355;29;20617;-91
2022/06/28 01:08:46;;;;;;;0.10;0.10;;;15.20;99.90;;;;;;4914739;29;20451;-90
2022/06/28 01:11:19;;;;;;;0.10;0.10;;;15.10;99.90;;;;;;4916016;29;20199;-90
2022/06/28 01:13:50;;;;;;;0.10;0.10;;;15.10;99.90;;;;;;4935866;29;20998;-90
2022/06/28 01:16:17;;;;;;;0.10;0.10;;;15.10;99.90;;;;;;4925516;29;21014;-88
2022/06/28 01:18:42;;;;;;;0.10;0.10;;;15.00;99.90;;;;;;4934525;29;20526;-91
2022/06/28 01:21:11;;;;;;;0.10;0.10;;;15.00;99.90;;;;;;4935223;29;21265;-91
2022/06/28 01:23:37;;;;;;;0.10;0.10;;;14.80;99.90;;;;;;4933944;29;20192;-92
2022/06/28 01:26:03;;;;;;;0.10;0.10;;;14.80;99.90;;;;;;4932415;29;21185;-90
2022/06/28 01:28:29;;;;;;;0.10;0.10;;;14.80;99.90;;;;;;4925723;29;20447;-90
2022/06/28 01:30:54;;;;;;;0.10;0.10;;;14.70;99.90;;;;;;4932952;29;20199;-90
2022/06/28 01:33:20;;;;;;;0.10;0.10;;;14.80;99.90;;;;;;4934438;29;20461;-91
2022/06/28 01:35:46;;;;;;;0.10;0.10;;;14.80;99.90;;;;;;4919081;29;20321;-91
2022/06/28 01:38:12;;;;;;;0.20;0.20;;;14.80;99.90;;;;;;4916634;29;20194;-90
2022/06/28 01:40:37;;;;;;;0.10;0.10;;;14.80;99.90;;;;;;4931154;29;20279;-91
2022/06/28 01:43:04;;;;;;;0.10;0.10;;;14.70;99.90;;;;;;4931617;29;20546;-92
2022/06/28 01:45:30;;;;;;;0.10;0.10;;;14.70;99.90;;;;;;4939891;29;20605;-91
2022/06/28 01:47:56;;;;;;;0.10;0.10;;;14.60;99.90;;;;;;4951885;29;20915;-92
2022/06/28 01:50:21;;;;;;;0.10;0.10;;;14.50;99.90;;;;;;4951436;28;20545;-91
2022/06/28 01:52:47;;;;;;;0.10;0.10;;;14.50;99.90;;;;;;4936330;29;20194;-92
2022/06/28 01:55:13;;;;;;;0.10;0.10;;;14.40;99.90;;;;;;4954395;28;20280;-92
2022/06/28 01:57:39;;;;;;;0.10;0.10;;;14.40;99.90;;;;;;4952118;28;20245;-92
2022/06/28 02:00:08;;;;;;;0.10;0.10;;;14.40;99.90;;;;;;4933489;28;20198;-92
2022/06/28 02:02:34;;;;;;;0.10;0.10;;;14.30;99.90;;;;;;4952315;28;20453;-92
2022/06/28 02:05:00;;;;;;;0.10;0.10;;;14.30;99.90;;;;;;4947898;28;20462;-93
2022/06/28 02:07:26;;;;;;;0.10;0.10;;;14.30;99.90;;;;;;4950767;28;20179;-92
2022/06/28 02:09:51;;;;;;;0.10;0.10;;;14.40;99.90;;;;;;4951646;28;20581;-92
2022/06/28 02:12:17;;;;;;;0.10;0.10;;;14.30;99.90;;;;;;4949401;28;20215;-92
2022/06/28 02:14:42;;;;;;;0.10;0.10;;;14.30;99.90;;;;;;4949377;28;20225;-90
2022/06/28 02:17:08;;;;;;;0.10;0.10;;;14.30;99.90;;;;;;4950257;28;20198;-92
2022/06/28 02:19:33;;;;;;;0.10;0.10;;;14.40;99.90;;;;;;4951705;28;20639;-90
2022/06/28 02:21:59;;;;;;;0.10;0.10;;;14.40;99.90;;;;;;4941076;29;20195;-91
2022/06/28 02:24:24;;;;;;;0.10;0.10;;;14.40;99.90;;;;;;4952768;28;20217;-90
2022/06/28 02:26:51;;;;;;;0.10;0.10;;;14.40;99.90;;;;;;4955439;28;20198;-90
2022/06/28 02:29:16;;;;;;;0.10;0.10;;;14.40;99.90;;;;;;4951244;28;20315;-89
2022/06/28 02:31:42;;;;;;;0.10;0.10;;;14.40;99.90;;;;;;4952616;28;20458;-93
2022/06/28 02:34:07;;;;;;;0.10;0.10;;;14.40;99.90;;;;;;4951543;28;20206;-91
2022/06/28 02:42:03;;;;;;;0.10;0.10;;;14.50;99.90;;;;;;4945928;28;20469;-91
2022/06/28 02:44:28;;;;;;;0.10;0.10;;;14.40;99.90;;;;;;4944328;28;20566;-90
2022/06/28 02:46:54;;;;;;;0.10;0.10;;;14.50;99.90;;;;;;4925299;29;21057;-92
2022/06/28 02:49:19;;;;;;;0.10;0.10;;;14.40;99.90;;;;;;4930123;29;20191;-91
2022/06/28 02:51:45;;;;;;;0.10;0.10;;;14.50;99.90;;;;;;4932917;29;20222;-92
2022/06/28 02:54:10;;;;;;;0.10;0.10;;;14.50;99.90;;;;;;4930022;29;20200;-91
2022/06/28 02:56:37;;;;;;;0.10;0.10;;;14.50;99.90;;;;;;4922814;29;20202;-91
2022/06/28 02:59:03;;;;;;;0.10;0.10;;;14.60;99.90;;;;;;4924088;29;20199;-92
2022/06/28 03:01:28;;;;;;;0.10;0.10;;;14.50;99.90;;;;;;4931578;29;20451;-90
2022/06/28 03:03:54;;;;;;;0.10;0.10;;;14.50;99.90;;;;;;4930384;29;22000;-92
2022/06/28 03:06:19;;;;;;;0.10;0.10;;;14.50;99.90;;;;;;4930509;29;20231;-91
2022/06/28 03:08:45;;;;;;;0.10;0.10;;;14.40;99.90;;;;;;4928438;29;20207;-92
2022/06/28 03:11:11;;;;;;;0.10;0.10;;;14.50;99.90;;;;;;4931729;29;20251;-91
2022/06/28 03:13:37;;;;;;;0.10;0.10;;;14.50;99.90;;;;;;4929976;29;20278;-92
2022/06/28 03:16:03;;;;;;;0.10;0.10;;;14.50;99.90;;;;;;4930692;29;20566;-92
2022/06/28 03:18:28;;;;;;;0.10;0.10;;;14.50;99.90;;;;;;4929460;29;20187;-91
2022/06/28 03:20:54;;;;;;;0.20;0.20;;;14.50;99.90;;;;;;4934148;29;20214;-91
2022/06/28 03:23:19;;;;;;;0.10;0.10;;;14.50;99.90;;;;;;4936959;28;20191;-91
2022/06/28 03:25:45;;;;;;;0.10;0.10;;;14.50;99.90;;;;;;4916819;29;20274;-91
2022/06/28 03:28:10;;;;;;;0.10;0.10;;;14.40;99.90;;;;;;4930985;29;20243;-92
2022/06/28 03:30:36;;;;;;;0.10;0.10;;;14.50;99.90;;;;;;4930788;29;20555;-92
2022/06/28 03:33:01;;;;;;;0.10;0.10;;;14.40;99.90;;;;;;4931613;29;20195;-91
2022/06/28 03:35:27;;;;;;;0.10;0.10;;;14.50;99.90;;;;;;4931854;29;20211;-92
2022/06/28 03:37:52;;;;;;;0.10;0.10;;;14.40;99.90;;;;;;4929867;29;20199;-90
2022/06/28 03:40:18;;;;;;;0.10;0.10;;;14.40;99.90;;;;;;4934222;29;20723;-92
2022/06/28 03:42:43;;;;;;;0.10;0.10;;;14.40;99.90;;;;;;4931889;29;20187;-91
2022/06/28 03:45:09;;;;;;;0.10;0.10;;;14.30;99.90;;;;;;4933036;29;20282;-89
2022/06/28 03:47:35;;;;;;;0.10;0.10;;;14.30;99.90;;;;;;4921449;29;20196;-91
2022/06/28 03:50:00;;;;;;;0.10;0.10;;;14.30;99.90;;;;;;4927572;29;20463;-91
2022/06/28 03:52:29;;;;;;;0.10;0.10;;;14.10;99.90;;;;;;4932483;29;20289;-91
2022/06/28 03:54:57;;;;;;;0.10;0.10;;;14.20;99.90;;;;;;4931718;29;20223;-91
2022/06/28 03:57:24;;;;;;;0.10;0.10;;;14.10;99.90;;;;;;4929548;29;20447;-90
2022/06/28 03:59:50;;;;;;;0.10;0.10;;;14.20;99.90;;;;;;4931308;29;20939;-92
2022/06/28 04:02:15;;;;;;;0.10;0.10;;;14.20;99.90;;;;;;4932216;29;21003;-91
2022/06/28 04:04:41;;;;;;;0.10;0.10;;;14.20;99.90;;;;;;4933044;29;20180;-92
2022/06/28 04:07:06;;;;;;;0.10;0.10;;;14.20;99.90;;;;;;4930925;29;20191;-91
2022/06/28 04:09:32;;;;;;;0.10;0.10;;;14.20;99.90;;;;;;4934562;29;20679;-91
2022/06/28 04:11:57;;;;;;;0.10;0.10;;;14.10;99.90;;;;;;4934178;29;20570;-91
2022/06/28 04:14:23;;;;;;;0.10;0.10;;;14.10;99.90;;;;;;4931460;29;20219;-89
2022/06/28 04:16:49;;;;;;;0.10;0.10;;;14.10;99.90;;;;;;4923100;29;20542;-91
2022/06/28 04:19:14;;;;;;;0.10;0.10;;;14.10;99.90;;;;;;4921971;29;20530;-91
2022/06/28 04:21:40;;;;;;;0.10;0.10;;;14.10;99.90;;;;;;4935978;29;20196;-89
2022/06/28 04:24:05;;;;;;;0.10;0.10;;;14.20;99.90;;;;;;4930393;29;20196;-90
2022/06/28 04:26:31;;;;;;;0.10;0.10;;;14.20;99.90;;;;;;4931850;29;20263;-90
2022/06/28 04:28:57;;;;;;;0.10;0.10;;;14.20;99.90;;;;;;4932602;29;20659;-91
2022/06/28 04:31:22;;;;;;;0.10;0.10;;;14.20;99.90;;;;;;4933764;29;20254;-91
2022/06/28 04:33:48;;;;;;;0.10;0.10;;;14.20;99.90;;;;;;4931439;29;20180;-90
2022/06/28 04:36:13;;;;;;;0.10;0.10;;;14.20;99.90;;;;;;4935090;29;20250;-91
2022/06/28 04:38:39;;;;;;;0.10;0.10;;;14.30;99.90;;;;;;4915936;29;20194;-90
2022/06/28 04:41:04;;;;;;;0.10;0.10;;;14.20;99.90;;;;;;4927622;29;20449;-91
2022/06/28 04:43:30;;;;;;;0.10;0.10;;;14.30;99.90;;;;;;4936460;29;20275;-91
2022/06/28 04:45:55;;;;;;;0.10;0.10;;;14.30;99.90;;;;;;4950931;29;20245;-92
2022/06/28 04:48:21;;;;;;;0.10;0.10;;;14.30;99.90;;;;;;4945816;28;20196;-91
2022/06/28 04:50:46;;;;;;;0.10;0.10;;;14.40;99.90;;;;;;4953243;28;20214;-91
2022/06/28 04:53:12;;;;;;;0.10;0.10;;;14.60;99.90;;;;;;4953015;28;20187;-91
2022/06/28 04:55:37;;;;;;;0.10;0.10;;;14.70;99.90;;;;;;4948265;28;20231;-91
2022/06/28 04:58:03;;;;;;;0.10;0.10;;;14.70;99.90;;;;;;4945677;28;20191;-91
2022/06/28 05:00:29;;;;;;;0.10;0.10;;;14.90;99.90;;;;;;4933166;29;20282;-91
2022/06/28 05:02:55;;;;;;;0.10;0.10;;;15.10;99.90;;;;;;4935268;29;20179;-92
2022/06/28 05:05:21;;;;;;;0.10;0.10;;;15.20;99.90;;;;;;4938609;29;20194;-90
2022/06/28 05:07:46;;;;;;;0.10;0.10;;;15.40;99.90;;;;;;4949273;28;20454;-90
2022/06/28 05:10:12;;;;;;;0.10;0.10;;;15.50;99.90;;;;;;4939327;28;20209;-89
2022/06/28 05:12:37;;;;;;;0.10;0.10;;;15.60;99.90;;;;;;4949946;28;20561;-89
2022/06/28 05:15:03;;;;;;;0.10;0.10;;;15.70;99.90;;;;;;4939429;28;20256;-89
2022/06/28 05:17:29;;;;;;;0.10;0.10;;;15.70;99.90;;;;;;4953822;28;20233;-89
2022/06/28 05:19:55;;;;;;;0.10;0.10;;;15.80;99.90;;;;;;4954825;28;20458;-88
2022/06/28 05:22:21;;;;;;;0.10;0.10;;;16.00;99.90;;;;;;4952572;28;20611;-89
2022/06/28 05:24:46;;;;;;;0.10;0.10;;;16.10;99.90;;;;;;4947016;28;20202;-90
2022/06/28 05:27:12;;;;;;;0.10;0.10;;;16.30;99.90;;;;;;4951080;28;20195;-89
2022/06/28 05:29:37;;;;;;;0.10;0.10;;;16.30;99.90;;;;;;4951600;28;20224;-89
2022/06/28 05:32:03;;;;;;;0.10;0.10;;;16.50;99.90;;;;;;4950840;28;20195;-93
2022/06/28 05:34:29;;;;;;;0.10;0.10;;;16.60;99.90;;;;;;4942953;28;20218;-88
2022/06/28 05:36:55;;;;;;;0.10;0.10;;;16.50;99.90;;;;;;4950629;28;20194;-88
2022/06/28 05:39:21;;;;;;;0.00;0.00;;;16.50;99.90;;;;;;4937527;29;20461;-88
2022/06/28 05:41:46;;;;;;;0.10;0.10;;;16.40;99.90;;;;;;4948972;28;20887;-89
2022/06/28 05:44:13;;;;;;;0.10;0.10;;;16.50;99.90;;;;;;4952893;28;20202;-89
2022/06/28 05:46:39;;;;;;;0.10;0.00;;;16.70;99.90;;;;;;4950590;28;20252;-88
2022/06/28 05:49:06;;;;;;;0.10;0.10;;;16.70;99.90;;;;;;4935876;29;20462;-87
2022/06/28 05:51:31;;;;;;;0.10;0.10;;;16.80;99.90;;;;;;4951661;29;20950;-86
2022/06/28 05:53:57;;;;;;;0.10;0.10;;;17.00;99.90;;;;;;4945567;28;20450;-88
2022/06/28 05:56:23;;;;;;;0.10;0.10;;;16.90;99.90;;;;;;4932636;28;20231;-88
2022/06/28 05:58:48;;;;;;;0.10;0.10;;;17.00;99.90;;;;;;4949663;28;20271;-87
2022/06/28 06:01:14;;;;;;;0.10;0.10;;;17.20;99.90;;;;;;4935637;28;20203;-86
2022/06/28 06:03:40;;;;;;;0.10;0.10;;;17.30;99.90;;;;;;4952668;28;20278;-87
2022/06/28 06:06:05;;;;;;;0.10;0.10;;;17.00;99.90;;;;;;4952444;28;20454;-88
2022/06/28 06:08:31;;;;;;;0.10;0.10;;;16.90;99.90;;;;;;4947828;28;20656;-86
2022/06/28 06:10:57;;;;;;;0.10;0.10;;;16.90;99.90;;;;;;4948647;28;20999;-86
2022/06/28 06:13:22;;;;;;;0.10;0.10;;;17.10;99.90;;;;;;4953206;29;20250;-86
2022/06/28 06:15:48;;;;;;;0.10;0.10;;;17.10;99.90;;;;;;4940189;28;20226;-86
2022/06/28 06:18:13;;;;;;;0.10;0.10;;;17.30;99.90;;;;;;4929795;29;20261;-87
2022/06/28 06:20:39;;;;;;;0.10;0.00;;;17.20;99.90;;;;;;4946251;28;20595;-86
2022/06/28 06:23:05;;;;;;;0.10;0.10;;;17.10;99.90;;;;;;4931754;28;20703;-87
2022/06/28 06:25:30;;;;;;;0.10;0.10;;;16.90;99.90;;;;;;4948172;28;20258;-85
2022/06/28 06:27:56;;;;;;;0.10;0.10;;;16.90;99.90;;;;;;4940908;28;20190;-87
2022/06/28 06:30:21;;;;;;;0.10;0.10;;;17.00;99.90;;;;;;4945774;28;20192;-88
2022/06/28 06:32:47;;;;;;;0.10;0.10;;;17.10;99.90;;;;;;4950124;28;20190;-86
2022/06/28 06:35:13;;;;;;;0.10;0.10;;;17.30;99.90;;;;;;4933612;28;20242;-85
2022/06/28 06:37:38;;;;;;;0.10;0.10;;;17.60;99.90;;;;;;4946855;28;20194;-84
2022/06/28 06:40:05;;;;;;;0.10;0.10;;;17.60;99.90;;;;;;4947594;28;20194;-85
2022/06/28 06:42:30;;;;;;;0.10;0.10;;;17.60;99.90;;;;;;4941909;28;20226;-86
2022/06/28 06:44:56;;;;;;;0.10;0.10;;;17.70;99.90;;;;;;4935395;28;20508;-85
2022/06/28 06:47:22;;;;;;;0.10;0.10;;;18.10;99.90;;;;;;4948088;28;20241;-85
2022/06/28 06:49:48;;;;;;;0.10;0.10;;;18.00;99.90;;;;;;4947056;28;20445;-84
2022/06/28 06:52:13;;;;;;;0.10;0.10;;;17.90;99.90;;;;;;4935253;29;20679;-83
2022/06/28 06:54:39;;;;;;;0.10;0.10;;;18.10;99.90;;;;;;4947642;29;20210;-84
2022/06/28 06:57:05;;;;;;;0.10;0.10;;;17.90;99.90;;;;;;4950972;29;20187;-84
2022/06/28 06:59:30;;;;;;;0.10;0.10;;;17.80;99.90;;;;;;4949971;28;20225;-84
2022/06/28 07:01:56;;;;;;;0.10;0.10;;;18.00;99.90;;;;;;4933618;29;20442;-83
2022/06/28 07:04:21;;;;;;;0.10;0.10;;;18.10;99.90;;;;;;4952380;28;20235;-84
2022/06/28 07:06:47;;;;;;;0.10;0.10;;;18.30;99.90;;;;;;4949948;28;20187;-84
2022/06/28 07:09:14;;;;;;;0.10;0.10;;;18.30;99.90;;;;;;4952495;28;20198;-84
2022/06/28 07:11:39;;;;;;;0.10;0.10;;;18.30;99.90;;;;;;4943784;28;20187;-83
2022/06/28 07:14:05;;;;;;;0.10;0.10;;;18.10;99.90;;;;;;4950468;28;20808;-84
2022/06/28 07:16:31;;;;;;;0.10;0.00;;;18.00;99.90;;;;;;4950153;28;20265;-84
2022/06/28 07:18:57;;;;;;;0.10;0.00;;;18.00;99.90;;;;;;4940617;29;20209;-83
2022/06/28 07:21:22;;;;;;;0.10;0.00;;;18.00;99.90;;;;;;4949627;29;20230;-83
2022/06/28 07:23:48;;;;;;;0.10;0.10;;;18.50;99.90;;;;;;4951179;28;20419;-81
2022/06/28 07:26:14;;;;;;;0.10;0.10;;;18.50;99.90;;;;;;4940790;29;20218;-84
2022/06/28 07:28:39;;;;;;;0.10;0.00;;;18.40;99.90;;;;;;4937414;28;20178;-83
2022/06/28 07:31:05;;;;;;;0.10;0.10;;;18.30;99.90;;;;;;4950798;29;20619;-85
2022/06/28 07:33:30;;;;;;;0.10;0.00;;;18.40;99.90;;;;;;4943336;29;20183;-83
2022/06/28 07:35:56;;;;;;;0.10;0.10;;;18.80;99.90;;;;;;4930320;29;20274;-83
2022/06/28 07:38:22;;;;;;;0.10;0.00;;;19.00;99.90;;;;;;4933315;29;20640;-83
2022/06/28 07:40:47;;;;;;;0.10;0.10;;;19.20;99.90;;;;;;4922190;28;20643;-83
2022/06/28 07:43:13;;;;;;;0.10;0.10;;;19.40;99.90;;;;;;4943073;28;20192;-83
2022/06/28 07:45:40;;;;;;;0.10;0.10;;;19.10;99.90;;;;;;4953997;28;20238;-82
2022/06/28 07:48:06;;;;;;;0.10;0.10;;;18.80;99.90;;;;;;4953247;28;20249;-83
2022/06/28 07:53:16;;;;;;;0.10;0.10;;;19.50;99.90;;;;;;4951936;28;20448;-83
2022/06/28 07:55:42;;;;;;;0.10;0.00;;;19.70;99.90;;;;;;4945595;28;20856;-85
2022/06/28 07:58:07;;;;;;;0.10;0.10;;;19.70;99.90;;;;;;4949152;28;20457;-83
2022/06/28 08:00:33;;;;;;;0.10;0.00;;;19.30;99.90;;;;;;4959254;28;20312;-83
2022/06/28 08:02:58;;;;;;;0.00;0.00;;;19.10;99.90;;;;;;4955850;28;20231;-83
2022/06/28 08:05:24;;;;;;;0.10;0.00;;;19.50;99.90;;;;;;4954598;28;20194;-83
2022/06/28 08:07:50;;;;;;;0.10;0.00;;;19.90;99.90;;;;;;4954778;29;20190;-85
2022/06/28 08:10:16;;;;;;;0.10;0.10;;;20.40;99.90;;;;;;4954487;28;20277;-83
2022/06/28 08:12:42;;;;;;;0.10;0.00;;;20.20;99.90;;;;;;4953466;28;20201;-83
2022/06/28 08:15:08;;;;;;;0.10;0.00;;;20.00;99.90;;;;;;4957535;28;20233;-83
2022/06/28 08:17:34;;;;;;;0.00;0.00;;;19.90;99.90;;;;;;4952124;28;20453;-83
2022/06/28 08:20:00;;;;;;;0.00;0.00;;;20.10;99.90;;;;;;4952533;29;20550;-83
2022/06/28 08:22:25;;;;;;;0.10;0.00;;;20.10;99.90;;;;;;4954829;28;20186;-83
2022/06/28 08:24:51;;;;;;;0.10;0.00;;;19.90;99.90;;;;;;4948458;28;20721;-84
2022/06/28 08:27:17;;;;;;;0.10;0.00;;;20.00;99.90;;;;;;4953321;28;20206;-83
2022/06/28 08:29:42;;;;;;;0.10;0.00;;;20.10;99.90;;;;;;4949321;28;20664;-84
2022/06/28 08:32:09;;;;;;;0.10;0.00;;;20.30;99.90;;;;;;4937309;29;20294;-84
2022/06/28 08:34:35;;;;;;;0.10;0.00;;;20.60;99.90;;;;;;4936740;29;20230;-83
2022/06/28 08:37:00;;;;;;;0.10;0.00;;;20.80;99.90;;;;;;4954998;28;20439;-84
2022/06/28 08:39:26;;;;;;;0.10;0.00;;;20.70;99.90;;;;;;4953140;28;20242;-84
2022/06/28 08:41:52;;;;;;;0.10;0.00;;;21.20;99.90;;;;;;4947123;28;20202;-84
2022/06/28 08:44:18;;;;;;;0.10;0.10;;;21.10;99.90;;;;;;4952220;28;20239;-84
2022/06/28 08:46:50;;;;;;;0.10;0.10;;;21.50;99.90;;;;;;4947346;28;20497;-83
2022/06/28 08:49:27;;;;;;;0.10;0.00;;;21.50;99.90;;;;;;4940270;28;20191;-84
2022/06/28 08:51:55;;;;;;;0.10;0.00;;;22.20;99.90;;;;;;4940814;28;20461;-84
2022/06/28 08:54:22;;;;;;;0.10;0.00;;;21.90;99.90;;;;;;4948836;28;20937;-84
2022/06/28 08:56:49;;;;;;;0.10;0.00;;;22.00;99.90;;;;;;4955075;28;20466;-85
2022/06/28 08:59:15;;;;;;;0.00;0.00;;;22.10;99.90;;;;;;4937325;28;20442;-85
2022/06/28 09:01:41;;;;;;;0.10;0.00;;;22.10;99.90;;;;;;4942102;28;20461;-85
2022/06/28 09:04:09;;;;;;;0.10;0.00;;;22.00;99.90;;;;;;4949812;28;20194;-86
2022/06/28 09:06:35;;;;;;;0.10;0.00;;;22.40;99.90;;;;;;4947362;28;20195;-85
2022/06/28 09:09:01;;;;;;;0.07;0.00;;;22.10;99.90;;;;;;4925708;29;20454;-85
2022/06/28 09:11:41;;;;;;;0.10;0.00;;;21.90;99.90;;;;;;4952413;28;20540;-85
2022/06/28 09:14:28;;;;;;;0.10;0.00;;;21.10;99.90;;;;;;4951412;28;20218;-85
2022/06/28 09:16:55;;;;;;;0.10;0.00;;;20.50;99.90;;;;;;4947103;28;20450;-85
2022/06/28 09:19:38;;;;;;;0.10;0.00;;;20.20;99.90;;;;;;4947104;28;21010;-85
2022/06/28 09:22:04;;;;;;;0.10;0.10;;;19.80;99.90;;;;;;4935463;28;20481;-86
2022/06/28 09:24:31;;;;;;;0.10;0.00;;;19.70;99.90;;;;;;4940075;28;20493;-85
2022/06/28 09:27:04;;;;;;;0.10;0.00;;;19.30;99.90;;;;;;4946853;28;20443;-85
2022/06/28 09:29:44;;;;;;;0.10;0.00;;;19.30;99.90;;;;;;4947512;28;20482;-85
2022/06/28 09:32:10;;;;;;;0.10;0.00;;;19.10;99.90;;;;;;4947282;28;20465;-85
2022/06/28 09:34:52;;;;;;;0.10;0.00;;;18.60;99.90;;;;;;4930355;29;20481;-86
2022/06/28 09:37:31;;;;;;;0.10;0.10;;;18.80;99.90;;;;;;4953901;28;20210;-85
2022/06/28 09:39:57;;;;;;;0.10;0.00;;;19.00;99.90;;;;;;4946921;28;20457;-85
2022/06/28 09:42:22;;;;;;;0.10;0.00;;;19.70;99.90;;;;;;4931433;28;20447;-86
2022/06/28 09:44:54;;;;;;;0.10;0.00;;;20.70;99.90;;;;;;4934870;28;20248;-85
2022/06/28 09:47:19;;;;;;;0.10;0.00;;;21.50;99.90;;;;;;4907846;29;20192;-86
2022/06/28 09:49:48;;;;;;;0.10;0.00;;;22.10;99.90;;;;;;4913255;29;20462;-85
2022/06/28 09:52:16;;;;;;;0.10;0.00;;;22.60;99.90;;;;;;4930535;29;20366;-85
2022/06/28 09:54:46;;;;;;;0.10;0.00;;;22.30;99.90;;;;;;4932097;29;20956;-85
2022/06/28 09:57:12;;;;;;;0.10;0.07;;;22.40;99.90;;;;;;4910946;29;20502;-85
2022/06/28 09:59:39;;;;;;;0.03;0.03;;;22.40;99.90;;;;;;4934319;29;20923;-85
2022/06/28 10:02:13;;;;;;;0.10;0.00;;;21.60;99.90;;;;;;4932203;29;20466;-85
2022/06/28 10:04:39;;;;;;;0.10;0.00;;;22.50;99.90;;;;;;4924266;29;20487;-86
2022/06/28 10:07:08;;;;;;;0.10;0.00;;;22.70;99.90;;;;;;4928047;29;20447;-84
2022/06/28 10:09:34;;;;;;;0.10;0.00;;;23.20;99.90;;;;;;4911414;29;20199;-86
2022/06/28 10:15:01;;;;;;;0.10;0.10;;;24.30;99.90;;;;;;4930533;29;20514;-85
2022/06/28 10:17:35;;;;;;;0.10;0.00;;;24.40;99.90;;;;;;4931459;29;20451;-84
2022/06/28 10:20:04;;;;;;;0.00;0.00;;;22.50;99.90;;;;;;4924773;29;20455;-84
2022/06/28 10:22:30;;;;;;;0.10;0.00;;;21.80;99.90;;;;;;4930502;29;22058;-83
2022/06/28 10:25:01;;;;;;;0.10;0.00;;;21.70;99.90;;;;;;4928234;29;21001;-84
2022/06/28 10:27:28;;;;;;;0.10;0.00;;;23.00;99.90;;;;;;4930140;29;20195;-83
2022/06/28 10:30:08;;;;;;;0.10;0.00;;;23.80;99.90;;;;;;4914360;29;20458;-84
2022/06/28 10:32:49;;;;;;;0.10;0.00;;;24.00;99.90;;;;;;4928584;29;21007;-85
2022/06/28 10:35:33;;;;;;;0.10;0.00;;;24.40;99.90;;;;;;4927204;29;20486;-84
2022/06/28 10:38:10;;;;;;;0.10;0.00;;;24.80;99.90;;;;;;4920949;29;20455;-85
2022/06/28 10:40:49;;;;;;;0.10;0.00;;;25.20;99.90;;;;;;4931038;29;22180;-83
2022/06/28 10:43:35;;;;;;;0.10;0.00;;;25.80;99.90;;;;;;4931141;29;20442;-83
2022/06/28 10:46:04;;;;;;;0.10;0.00;;;25.90;99.90;;;;;;4944604;28;20482;-84
2022/06/28 10:48:30;;;;;;;0.10;0.00;;;24.00;99.90;;;;;;4946426;28;20449;-83
2022/06/28 10:51:03;;;;;;;0.00;0.00;;;23.20;99.90;;;;;;4939018;28;20801;-83
2022/06/28 10:53:50;;;;;;;0.10;0.00;;;22.90;99.90;;;;;;4948947;28;20520;-83
2022/06/28 10:56:17;;;;;;;0.10;0.00;;;23.80;99.90;;;;;;4944493;28;20486;-83
2022/06/28 10:58:55;;;;;;;0.10;0.00;;;23.90;99.90;;;;;;4941335;28;20446;-83
2022/06/28 11:01:39;;;;;;;0.00;0.00;;;25.00;99.90;;;;;;4949503;28;20454;-84
2022/06/28 11:04:21;;;;;;;0.00;0.00;;;25.60;99.90;;;;;;4948984;28;20477;-84
2022/06/28 11:06:48;;;;;;;0.00;0.00;;;25.70;99.90;;;;;;4947631;28;20478;-85
2022/06/28 11:09:34;;;;;;;0.00;0.00;;;25.40;99.90;;;;;;4935621;29;20459;-85
2022/06/28 11:12:21;;;;;;;0.00;0.00;;;26.30;99.90;;;;;;4938119;28;20449;-84
2022/06/28 11:14:53;;;;;;;0.00;0.00;;;26.60;99.90;;;;;;4947403;28;20505;-84
2022/06/28 11:17:22;;;;;;;0.00;0.00;;;26.60;99.90;;;;;;4942069;28;20513;-83
2022/06/28 11:20:01;;;;;;;0.00;0.00;;;27.30;99.90;;;;;;4941568;28;20835;-83
2022/06/28 11:22:37;;;;;;;0.00;0.00;;;26.80;99.90;;;;;;4946599;28;20469;-82
2022/06/28 11:25:05;;;;;;;0.00;0.00;;;24.70;99.90;;;;;;4950802;28;21014;-84
2022/06/28 11:27:32;;;;;;;0.00;0.00;;;24.70;99.90;;;;;;4937252;28;20801;-84
2022/06/28 11:30:03;;;;;;;0.00;0.00;;;25.40;99.90;;;;;;4962478;28;20564;-85
2022/06/28 11:32:35;;;;;;;0.00;0.00;;;25.40;99.90;;;;;;4947253;28;20445;-84
2022/06/28 11:35:06;;;;;;;0.00;0.00;;;25.90;99.90;;;;;;4950962;28;20490;-84
2022/06/28 11:37:44;;;;;;;0.10;0.00;;;25.00;99.90;;;;;;4948940;28;20454;-85
2022/06/28 11:40:10;;;;;;;0.10;0.00;;;25.20;99.90;;;;;;4947153;28;20937;-84
2022/06/28 11:42:35;;;;;;;0.10;0.00;;;25.40;99.90;;;;;;4947379;28;20529;-85
2022/06/28 11:45:01;;;;;;;0.10;0.00;;;25.70;99.90;;;;;;4920101;29;20337;-85
2022/06/28 11:47:27;;;;;;;0.10;0.00;;;27.00;99.90;;;;;;4917742;29;20218;-84
2022/06/28 11:50:18;;;;;;;0.10;0.00;;;27.60;99.90;;;;;;4930868;29;21747;-83
2022/06/28 11:52:47;;;;;;;0.10;0.00;;;28.20;99.90;;;;;;4924357;29;20188;-81
2022/06/28 11:55:13;;;;;;;0.10;0.00;;;28.30;99.90;;;;;;4931267;29;20483;-81
2022/06/28 11:57:39;;;;;;;0.10;0.00;;;28.80;99.90;;;;;;4931919;29;20489;-81
2022/06/28 12:00:06;;;;;;;0.10;0.00;;;29.10;99.90;;;;;;4923891;29;20547;-82
2022/06/28 12:02:52;;;;;;;0.10;0.00;;;28.70;99.90;;;;;;4915701;29;20522;-81
2022/06/28 12:05:34;;;;;;;0.10;0.00;;;29.60;99.90;;;;;;4928607;29;20481;-81
2022/06/28 12:08:00;;;;;;;0.00;0.00;;;29.90;99.90;;;;;;4922550;29;20465;-83
2022/06/28 12:10:29;;;;;;;0.00;0.00;;;29.40;99.90;;;;;;4908247;29;20467;-81
2022/06/28 12:12:58;;;;;;;0.00;0.00;;;28.80;99.90;;;;;;4916162;29;20456;-82
2022/06/28 12:15:31;;;;;;;0.00;0.00;;;28.70;99.90;;;;;;4929310;29;20538;-82
2022/06/28 12:18:03;;;;;;;0.00;0.00;;;28.30;99.90;;;;;;4915125;29;20451;-83
2022/06/28 12:20:30;;;;;;;0.00;0.00;;;28.30;99.90;;;;;;4934030;28;20602;-83
2022/06/28 12:23:13;;;;;;;0.00;0.00;;;28.10;99.80;;;;;;4929680;29;20450;-81
2022/06/28 12:25:39;;;;;;;0.00;0.00;;;26.80;99.90;;;;;;4926134;29;20482;-82
2022/06/28 12:28:04;;;;;;;0.00;0.00;;;25.70;99.90;;;;;;4928371;29;20845;-84
2022/06/28 12:30:30;;;;;;;0.00;0.00;;;26.80;99.90;;;;;;4929134;29;20203;-84
2022/06/28 12:32:56;;;;;;;0.00;0.00;;;27.50;99.90;;;;;;4933254;29;20573;-83
2022/06/28 12:35:22;;;;;;;0.00;0.00;;;28.20;99.90;;;;;;4930201;29;20234;-83
2022/06/28 12:37:48;;;;;;;0.00;0.00;;;28.80;99.90;;;;;;4929494;29;20479;-81
2022/06/28 12:40:15;;;;;;;0.00;0.00;;;29.10;98.90;;;;;;4931584;29;20454;-81
2022/06/28 12:42:40;;;;;;;0.00;0.00;;;29.20;99.90;;;;;;4932942;29;20191;-82
2022/06/28 12:45:06;;;;;;;0.00;0.00;;;29.50;96.90;;;;;;4927503;29;20491;-82
2022/06/28 12:47:34;;;;;;;0.00;0.00;;;28.70;98.20;;;;;;4915554;29;20351;-82
2022/06/28 12:50:02;;;;;;;0.00;0.00;;;29.60;98.00;;;;;;4916312;29;20455;-82
2022/06/28 12:52:29;;;;;;;0.00;0.00;;;29.10;96.10;;;;;;4934044;29;20820;-83
2022/06/28 12:54:54;;;;;;;0.00;0.00;;;29.10;95.40;;;;;;4915116;29;20850;-82
2022/06/28 12:57:20;;;;;;;0.00;0.00;;;28.90;97.40;;;;;;4930614;29;20459;-82
2022/06/28 12:59:45;;;;;;;0.00;0.00;;;28.80;98.50;;;;;;4917643;29;20195;-82
2022/06/28 13:02:11;;;;;;;0.00;0.00;;;28.90;98.00;;;;;;4922482;29;20192;-82